createdAt,value
2018-05-24T00:02:16.608Z,4.90
2018-05-24T00:04:44.714Z,4.73
2018-05-24T00:07:12.829Z,4.67
2018-05-24T00:09:41.034Z,4.63
2018-05-24T00:12:09.198Z,4.60
2018-05-24T00:14:37.356Z,4.50
2018-05-24T00:17:05.463Z,4.43
2018-05-24T00:19:34.173Z,4.23
2018-05-24T00:22:02.305Z,3.93
2018-05-24T00:24:30.441Z,4.47
2018-05-24T00:26:58.546Z,4.40
2018-05-24T00:29:26.671Z,4.00
2018-05-24T00:31:54.816Z,4.10
2018-05-24T00:34:22.929Z,3.73
2018-05-24T00:36:51.045Z,4.50
2018-05-24T00:39:19.279Z,3.67
2018-05-24T00:41:47.405Z,3.70
2018-05-24T00:44:15.509Z,4.00
2018-05-24T00:46:43.622Z,4.03
2018-05-24T00:49:11.739Z,4.07
2018-05-24T00:51:39.853Z,4.10
2018-05-24T00:54:08.000Z,4.37
2018-05-24T00:56:36.112Z,4.37
2018-05-24T00:59:04.215Z,4.43
2018-05-24T01:01:32.369Z,3.97
2018-05-24T01:04:00.455Z,4.40
2018-05-24T01:06:28.625Z,3.73
2018-05-24T01:08:56.742Z,4.50
2018-05-24T01:11:24.865Z,3.77
2018-05-24T01:13:53.004Z,4.00
2018-05-24T01:16:21.116Z,4.30
2018-05-24T01:18:49.241Z,4.10
2018-05-24T01:21:17.362Z,3.90
2018-05-24T01:23:45.479Z,3.70
2018-05-24T01:26:13.587Z,3.87
2018-05-24T01:28:41.709Z,4.37
2018-05-24T01:31:09.875Z,3.43
2018-05-24T01:33:38.010Z,3.33
2018-05-24T01:36:06.124Z,3.50
2018-05-24T01:38:34.264Z,3.60
2018-05-24T01:41:02.381Z,3.70
2018-05-24T01:43:30.489Z,4.13
2018-05-24T01:45:58.621Z,3.63
2018-05-24T01:48:26.725Z,3.97
2018-05-24T01:50:54.834Z,4.00
2018-05-24T01:53:22.966Z,3.80
2018-05-24T01:55:51.602Z,4.20
2018-05-24T01:58:19.732Z,3.90
2018-05-24T02:00:47.851Z,4.17
2018-05-24T02:03:15.969Z,4.20
2018-05-24T02:05:44.081Z,4.30
2018-05-24T02:08:12.387Z,3.80
2018-05-24T02:10:40.500Z,3.77
2018-05-24T02:13:08.640Z,3.63
2018-05-24T02:15:36.769Z,4.20
2018-05-24T02:18:04.885Z,3.60
2018-05-24T02:20:33.005Z,3.43
2018-05-24T02:23:01.152Z,3.83
2018-05-24T02:25:29.265Z,3.70
2018-05-24T02:27:57.395Z,3.90
2018-05-24T02:30:25.545Z,4.23
2018-05-24T02:32:53.654Z,4.07
2018-05-24T02:35:22.153Z,3.70
2018-05-24T02:37:50.280Z,3.80
2018-05-24T02:40:18.383Z,3.67
2018-05-24T02:42:46.507Z,3.30
2018-05-24T02:45:14.655Z,3.70
2018-05-24T02:47:42.762Z,3.43
2018-05-24T02:50:10.874Z,3.43
2018-05-24T02:52:39.017Z,3.57
2018-05-24T02:55:07.119Z,3.73
2018-05-24T02:57:35.251Z,3.47
2018-05-24T03:00:03.927Z,3.80
2018-05-24T03:02:32.397Z,3.47
2018-05-24T03:05:00.985Z,3.67
2018-05-24T03:07:29.167Z,3.50
2018-05-24T03:09:57.271Z,3.73
2018-05-24T03:12:25.384Z,3.50
2018-05-24T03:14:53.532Z,3.77
2018-05-24T03:17:21.645Z,3.50
2018-05-24T03:19:49.781Z,3.30
2018-05-24T03:22:17.919Z,3.50
2018-05-24T03:24:46.014Z,4.37
2018-05-24T03:27:14.141Z,4.30
2018-05-24T03:29:42.450Z,4.10
2018-05-24T03:32:10.591Z,4.70
2018-05-24T03:34:38.687Z,4.60
2018-05-24T03:37:07.077Z,5.00
2018-05-24T03:39:35.175Z,4.90
2018-05-24T03:42:03.375Z,4.57
2018-05-24T03:44:31.759Z,4.50
2018-05-24T03:46:59.918Z,4.83
2018-05-24T03:49:28.112Z,5.37
2018-05-24T03:51:56.256Z,6.80
2018-05-24T03:54:24.374Z,5.80
2018-05-24T03:56:52.499Z,5.17
2018-05-24T04:02:49.107Z,4.93
2018-05-24T04:05:17.248Z,5.67
2018-05-24T04:07:45.728Z,4.70
2018-05-24T04:10:14.011Z,5.50
2018-05-24T04:12:42.163Z,4.90
2018-05-24T04:15:10.258Z,4.93
2018-05-24T04:17:38.387Z,5.60
2018-05-24T04:20:06.504Z,5.67
2018-05-24T04:22:34.622Z,5.80
2018-05-24T04:25:02.753Z,5.63
2018-05-24T04:27:30.888Z,6.30
2018-05-24T04:29:59.008Z,5.80
2018-05-24T04:32:27.132Z,5.77
2018-05-24T04:34:55.269Z,6.57
2018-05-24T04:37:23.407Z,6.20
2018-05-24T04:39:51.528Z,5.90
2018-05-24T04:42:19.660Z,6.27
2018-05-24T04:44:47.785Z,6.30
2018-05-24T04:47:15.895Z,6.50
2018-05-24T04:49:44.054Z,7.00
2018-05-24T04:52:12.259Z,6.37
2018-05-24T04:54:40.304Z,6.70
2018-05-24T04:57:08.441Z,7.27
2018-05-24T04:59:36.559Z,6.53
2018-05-24T05:02:04.666Z,6.77
2018-05-24T05:04:32.834Z,6.73
2018-05-24T05:07:00.971Z,6.90
2018-05-24T05:09:29.095Z,6.40
2018-05-24T05:11:57.210Z,7.27
2018-05-24T05:14:25.319Z,6.33
2018-05-24T05:16:53.542Z,6.03
2018-05-24T05:19:21.701Z,5.60
2018-05-24T05:21:49.877Z,5.80
2018-05-24T05:24:17.994Z,5.50
2018-05-24T05:26:46.129Z,6.77
2018-05-24T05:29:14.267Z,6.27
2018-05-24T05:31:42.373Z,6.10
2018-05-24T05:34:10.521Z,6.50
2018-05-24T05:36:38.637Z,6.67
2018-05-24T05:39:06.759Z,6.57
2018-05-24T05:41:34.893Z,6.93
2018-05-24T05:44:02.990Z,6.60
2018-05-24T05:46:31.117Z,6.10
2018-05-24T05:48:59.298Z,6.70
2018-05-24T05:51:27.399Z,7.40
2018-05-24T05:53:55.530Z,7.07
2018-05-24T05:56:24.656Z,7.13
2018-05-24T05:58:52.785Z,6.40
2018-05-24T06:01:20.891Z,6.93
2018-05-24T06:03:49.034Z,6.60
2018-05-24T06:06:17.138Z,6.57
2018-05-24T06:08:45.258Z,7.07
2018-05-24T06:11:13.849Z,6.23
2018-05-24T06:13:42.135Z,6.80
2018-05-24T06:16:10.229Z,6.07
2018-05-24T06:18:38.377Z,5.80
2018-05-24T06:21:06.490Z,5.73
2018-05-24T06:23:34.605Z,5.93
2018-05-24T06:26:02.723Z,6.50
2018-05-24T06:28:30.937Z,5.90
2018-05-24T06:30:58.973Z,5.90
2018-05-24T06:33:27.098Z,6.10
2018-05-24T06:35:55.378Z,6.30
2018-05-24T06:38:23.478Z,6.73
2018-05-24T06:40:51.610Z,5.50
2018-05-24T06:43:19.747Z,5.83
2018-05-24T06:45:47.846Z,6.40
2018-05-24T06:48:15.977Z,6.50
2018-05-24T06:50:44.071Z,7.20
2018-05-24T06:53:12.167Z,7.33
2018-05-24T06:55:40.489Z,8.37
2018-05-24T06:58:08.587Z,9.00
2018-05-24T07:00:36.695Z,8.60
2018-05-24T07:03:04.828Z,9.40
2018-05-24T07:05:32.970Z,9.57
2018-05-24T07:08:01.111Z,9.47
2018-05-24T07:10:29.231Z,10.37
2018-05-24T07:12:57.381Z,10.33
2018-05-24T07:15:25.510Z,10.27
2018-05-24T07:17:53.655Z,9.83
2018-05-24T07:20:21.766Z,10.10
2018-05-24T07:22:49.897Z,10.03
2018-05-24T07:25:18.038Z,9.97
2018-05-24T07:27:46.177Z,10.50
2018-05-24T07:30:14.333Z,10.10
2018-05-24T07:32:42.473Z,9.27
2018-05-24T07:35:10.584Z,9.50
2018-05-24T07:37:38.701Z,8.87
2018-05-24T07:40:06.836Z,9.07
2018-05-24T07:42:34.958Z,9.13
2018-05-24T07:45:03.129Z,8.63
2018-05-24T07:47:31.225Z,8.90
2018-05-24T07:49:59.355Z,8.87
2018-05-24T07:52:27.455Z,8.90
2018-05-24T07:54:56.156Z,8.43
2018-05-24T07:57:24.221Z,8.10
2018-05-24T07:59:52.344Z,9.43
2018-05-24T08:02:20.499Z,9.77
2018-05-24T08:04:48.628Z,8.70
2018-05-24T08:07:16.742Z,8.67
2018-05-24T08:09:45.102Z,9.33
2018-05-24T08:12:13.210Z,8.67
2018-05-24T08:14:41.415Z,8.60
2018-05-24T08:17:09.513Z,8.83
2018-05-24T08:19:37.657Z,9.13
2018-05-24T08:22:05.784Z,9.30
2018-05-24T08:24:33.924Z,9.07
2018-05-24T08:27:02.121Z,9.00
2018-05-24T08:29:30.298Z,9.90
2018-05-24T08:31:58.449Z,9.17
2018-05-24T08:34:26.560Z,9.27
2018-05-24T08:36:54.903Z,10.30
2018-05-24T08:39:23.047Z,9.47
2018-05-24T08:41:51.262Z,10.03
2018-05-24T08:44:19.341Z,9.87
2018-05-24T08:46:47.497Z,9.70
2018-05-24T08:49:15.605Z,9.30
2018-05-24T08:51:43.744Z,9.77
2018-05-24T08:54:11.893Z,9.00
2018-05-24T08:56:40.027Z,9.80
2018-05-24T08:59:08.149Z,10.17
2018-05-24T09:01:36.281Z,10.30
2018-05-24T09:04:04.462Z,9.33
2018-05-24T09:06:32.797Z,10.17
2018-05-24T09:09:00.930Z,9.80
2018-05-24T09:11:29.049Z,10.33
2018-05-24T09:13:57.163Z,10.43
2018-05-24T09:16:25.661Z,10.47
2018-05-24T09:18:53.773Z,9.97
2018-05-24T09:21:21.905Z,10.53
2018-05-24T09:23:50.053Z,10.47
2018-05-24T09:26:18.177Z,10.27
2018-05-24T09:28:46.302Z,10.83
2018-05-24T09:31:14.428Z,10.90
2018-05-24T09:33:42.556Z,11.40
2018-05-24T09:36:10.686Z,11.33
2018-05-24T09:38:39.070Z,11.27
2018-05-24T09:41:07.187Z,11.07
2018-05-24T09:43:35.321Z,11.37
2018-05-24T09:46:03.465Z,10.60
2018-05-24T09:48:31.598Z,11.37
2018-05-24T09:50:59.740Z,11.40
2018-05-24T09:53:27.881Z,11.47
2018-05-24T09:55:55.989Z,12.37
2018-05-24T09:58:24.186Z,11.80
2018-05-24T10:00:52.332Z,10.90
2018-05-24T10:03:20.465Z,11.40
2018-05-24T10:05:48.589Z,11.67
2018-05-24T10:08:16.751Z,10.93
2018-05-24T10:10:46.777Z,12.33
2018-05-24T10:13:14.923Z,12.60
2018-05-24T10:15:43.062Z,12.23
2018-05-24T10:18:11.387Z,12.83
2018-05-24T10:20:39.512Z,13.30
2018-05-24T10:23:07.657Z,12.60
2018-05-24T10:25:35.785Z,12.37
2018-05-24T10:28:03.909Z,12.47
2018-05-24T10:30:32.067Z,12.20
2018-05-24T10:33:00.151Z,13.70
2018-05-24T10:35:28.285Z,13.07
2018-05-24T10:37:56.453Z,13.27
2018-05-24T10:40:24.569Z,11.93
2018-05-24T10:42:52.708Z,12.60
2018-05-24T10:45:20.897Z,12.87
2018-05-24T10:47:49.019Z,13.03
2018-05-24T10:50:17.159Z,12.77
2018-05-24T10:52:45.282Z,12.63
2018-05-24T10:55:13.417Z,13.03
2018-05-24T10:57:41.544Z,11.93
2018-05-24T11:00:09.667Z,13.73
2018-05-24T11:02:37.818Z,14.50
2018-05-24T11:05:05.919Z,14.23
2018-05-24T11:07:34.067Z,14.00
2018-05-24T11:10:02.182Z,14.23
2018-05-24T11:12:30.315Z,13.77
2018-05-24T11:14:58.477Z,14.40
2018-05-24T11:17:26.597Z,14.67
2018-05-24T11:19:54.721Z,13.00
2018-05-24T11:22:22.875Z,14.13
2018-05-24T11:24:51.011Z,13.30
2018-05-24T11:27:19.149Z,12.00
2018-05-24T11:29:47.299Z,13.90
2018-05-24T11:32:15.407Z,13.00
2018-05-24T11:34:43.532Z,12.20
2018-05-24T11:37:11.756Z,12.17
2018-05-24T11:39:39.805Z,11.40
2018-05-24T11:42:08.172Z,10.00
2018-05-24T11:44:36.312Z,9.93
2018-05-24T11:47:04.451Z,10.93
2018-05-24T11:49:32.578Z,10.80
2018-05-24T11:52:00.835Z,10.93
2018-05-24T11:54:28.954Z,11.07
2018-05-24T11:56:57.081Z,11.13
2018-05-24T11:59:25.249Z,10.57
2018-05-24T12:01:53.419Z,11.07
2018-05-24T12:04:21.523Z,10.67
2018-05-24T12:06:49.664Z,12.20
2018-05-24T12:09:21.570Z,13.10
2018-05-24T12:11:49.707Z,12.63
2018-05-24T12:14:17.847Z,13.77
2018-05-24T12:16:45.967Z,11.73
2018-05-24T12:19:14.101Z,11.97
2018-05-24T12:21:42.228Z,11.70
2018-05-24T12:24:10.361Z,13.80
2018-05-24T12:26:38.497Z,13.13
2018-05-24T12:29:06.678Z,12.63
2018-05-24T12:31:35.008Z,12.23
2018-05-24T12:34:03.116Z,11.53
2018-05-24T12:36:31.231Z,12.67
2018-05-24T12:38:59.368Z,11.67
2018-05-24T12:41:27.523Z,12.50
2018-05-24T12:43:55.626Z,12.70
2018-05-24T12:46:23.769Z,12.57
2018-05-24T12:48:51.981Z,12.20
2018-05-24T12:51:20.020Z,12.00
2018-05-24T12:53:48.157Z,12.13
2018-05-24T12:56:16.282Z,10.63
2018-05-24T12:58:44.409Z,9.63
2018-05-24T13:01:12.555Z,10.27
2018-05-24T13:03:40.675Z,9.60
2018-05-24T13:06:08.803Z,9.77
2018-05-24T13:08:36.925Z,7.83
2018-05-24T13:11:05.160Z,6.00
2018-05-24T13:13:33.231Z,5.57
2018-05-24T13:16:01.369Z,5.20
2018-05-24T13:18:29.463Z,5.47
2018-05-24T13:20:57.588Z,4.93
2018-05-24T13:23:25.717Z,5.20
2018-05-24T13:25:53.833Z,4.07
2018-05-24T13:28:21.964Z,4.43
2018-05-24T13:30:50.099Z,5.20
2018-05-24T13:33:21.229Z,5.70
2018-05-24T13:35:49.331Z,5.63
2018-05-24T13:38:17.453Z,5.47
2018-05-24T13:40:45.580Z,5.37
2018-05-24T13:43:13.788Z,6.00
2018-05-24T13:45:41.818Z,5.37
2018-05-24T13:48:09.955Z,5.60
2018-05-24T13:50:38.079Z,5.47
2018-05-24T13:53:06.200Z,6.00
2018-05-24T13:55:34.337Z,5.40
2018-05-24T13:58:02.472Z,5.70
2018-05-24T14:00:30.599Z,5.43
2018-05-24T14:02:58.702Z,5.60
2018-05-24T14:05:26.807Z,5.90
2018-05-24T14:07:54.958Z,5.57
2018-05-24T14:10:23.111Z,5.70
2018-05-24T14:12:51.201Z,5.03
2018-05-24T14:15:19.342Z,5.70
2018-05-24T14:17:47.477Z,5.50
2018-05-24T14:20:15.581Z,6.53
2018-05-24T14:22:43.749Z,7.10
2018-05-24T14:25:11.887Z,6.30
2018-05-24T14:27:40.023Z,6.97
2018-05-24T14:30:08.172Z,7.37
2018-05-24T14:32:36.270Z,6.63
2018-05-24T14:35:04.388Z,7.20
2018-05-24T14:37:32.685Z,8.00
2018-05-24T14:40:00.817Z,8.47
2018-05-24T14:42:32.256Z,7.60
2018-05-24T14:45:00.434Z,7.77
2018-05-24T14:47:28.575Z,8.10
2018-05-24T14:49:56.687Z,7.77
2018-05-24T14:52:24.813Z,8.00
2018-05-24T14:54:52.930Z,8.30
2018-05-24T14:57:21.084Z,8.27
2018-05-24T14:59:49.228Z,7.33
2018-05-24T15:02:17.344Z,7.40
2018-05-24T15:04:45.487Z,8.50
2018-05-24T15:07:13.604Z,7.50
2018-05-24T15:09:41.748Z,7.60
2018-05-24T15:12:09.928Z,7.67
2018-05-24T15:14:38.061Z,7.90
2018-05-24T15:17:06.162Z,7.60
2018-05-24T15:19:34.250Z,7.10
2018-05-24T15:22:05.583Z,6.93
2018-05-24T15:24:33.708Z,7.40
2018-05-24T15:27:01.822Z,7.20
2018-05-24T15:29:29.949Z,7.50
2018-05-24T15:31:58.073Z,8.00
2018-05-24T15:34:26.170Z,7.80
2018-05-24T15:36:54.302Z,7.33
2018-05-24T15:39:22.418Z,7.13
2018-05-24T15:41:50.537Z,8.30
2018-05-24T15:44:18.651Z,7.63
2018-05-24T15:46:46.778Z,8.50
2018-05-24T15:49:14.922Z,7.70
2018-05-24T15:51:43.052Z,7.90
2018-05-24T15:54:11.178Z,8.57
2018-05-24T15:56:39.341Z,8.73
2018-05-24T15:59:07.467Z,7.90
2018-05-24T16:01:35.571Z,8.73
2018-05-24T16:04:03.733Z,8.27
2018-05-24T16:06:31.849Z,8.27
2018-05-24T16:08:59.993Z,8.87
2018-05-24T16:11:28.136Z,10.03
2018-05-24T16:13:56.272Z,8.90
2018-05-24T16:16:24.389Z,9.50
2018-05-24T16:18:56.245Z,9.83
2018-05-24T16:21:24.393Z,8.67
2018-05-24T16:23:52.557Z,9.47
2018-05-24T16:26:20.691Z,9.47
2018-05-24T16:28:48.815Z,9.40
2018-05-24T16:31:16.942Z,9.30
2018-05-24T16:33:45.067Z,8.50
2018-05-24T16:36:13.195Z,9.00
2018-05-24T16:38:41.299Z,8.17
2018-05-24T16:41:11.322Z,8.73
2018-05-24T16:43:39.483Z,8.80
2018-05-24T16:46:07.605Z,8.90
2018-05-24T16:48:35.909Z,9.30
2018-05-24T16:51:04.025Z,9.23
2018-05-24T16:53:32.142Z,8.67
2018-05-24T16:56:00.254Z,8.53
2018-05-24T16:58:28.399Z,9.13
2018-05-24T17:00:56.543Z,10.83
2018-05-24T17:03:24.665Z,10.17
2018-05-24T17:05:52.800Z,8.77
2018-05-24T17:08:20.957Z,10.17
2018-05-24T17:10:49.088Z,9.83
2018-05-24T17:13:17.224Z,10.27
2018-05-24T17:15:45.370Z,10.60
2018-05-24T17:18:13.498Z,10.30
2018-05-24T17:20:41.642Z,11.13
2018-05-24T17:23:09.780Z,10.50
2018-05-24T17:25:37.905Z,11.87
2018-05-24T17:28:06.149Z,10.67
2018-05-24T17:30:34.296Z,11.70
2018-05-24T17:33:02.409Z,11.03
2018-05-24T17:35:30.550Z,10.73
2018-05-24T17:37:58.663Z,10.23
2018-05-24T17:40:26.817Z,10.80
2018-05-24T17:42:54.940Z,11.07
2018-05-24T17:45:23.078Z,10.07
2018-05-24T17:47:51.215Z,10.77
2018-05-24T17:50:19.342Z,10.13
2018-05-24T17:52:47.485Z,9.80
2018-05-24T17:55:15.631Z,9.33
2018-05-24T17:57:43.762Z,9.87
2018-05-24T18:00:11.893Z,9.70
2018-05-24T18:02:40.032Z,10.50
2018-05-24T18:05:08.174Z,9.10
2018-05-24T18:07:36.305Z,10.57
2018-05-24T18:10:07.485Z,10.40
2018-05-24T18:12:35.630Z,10.60
2018-05-24T18:15:03.748Z,10.27
2018-05-24T18:17:32.101Z,10.20
2018-05-24T18:20:00.247Z,11.03
2018-05-24T18:22:28.383Z,11.67
2018-05-24T18:24:56.518Z,10.73
2018-05-24T18:27:24.652Z,11.53
2018-05-24T18:29:52.786Z,10.93
2018-05-24T18:32:20.931Z,11.00
2018-05-24T18:34:49.046Z,11.33
2018-05-24T18:37:17.175Z,11.40
2018-05-24T18:39:45.305Z,11.30
2018-05-24T18:42:14.622Z,10.60
2018-05-24T18:44:42.766Z,10.93
2018-05-24T18:47:10.888Z,10.13
2018-05-24T18:49:39.022Z,10.77
2018-05-24T18:52:07.149Z,10.87
2018-05-24T18:54:36.161Z,10.80
2018-05-24T18:57:04.660Z,10.40
2018-05-24T18:59:32.803Z,10.47
2018-05-24T19:02:00.977Z,10.30
2018-05-24T19:04:29.096Z,10.40
2018-05-24T19:06:57.244Z,10.63
2018-05-24T19:09:25.373Z,10.40
2018-05-24T19:11:53.505Z,10.77
2018-05-24T19:14:21.649Z,10.80
2018-05-24T19:16:49.791Z,9.93
2018-05-24T19:19:17.950Z,10.70
2018-05-24T19:21:46.080Z,9.90
2018-05-24T19:24:14.214Z,10.67
2018-05-24T19:26:42.601Z,9.80
2018-05-24T19:29:10.742Z,9.83
2018-05-24T19:31:38.867Z,9.97
2018-05-24T19:34:07.044Z,9.83
2018-05-24T19:36:35.147Z,9.13
2018-05-24T19:39:03.301Z,9.90
2018-05-24T19:41:31.437Z,9.07
2018-05-24T19:43:59.568Z,9.07
2018-05-24T19:46:27.688Z,9.53
2018-05-24T19:48:55.951Z,9.10
2018-05-24T19:51:24.068Z,8.93
2018-05-24T19:53:52.324Z,8.97
2018-05-24T19:56:20.445Z,8.97
2018-05-24T19:58:48.570Z,8.70
2018-05-24T20:01:16.677Z,8.83
2018-05-24T20:03:44.828Z,8.73
2018-05-24T20:06:12.957Z,8.93
2018-05-24T20:08:41.307Z,8.67
2018-05-24T20:11:09.432Z,8.47
2018-05-24T20:13:37.570Z,8.03
2018-05-24T20:16:05.697Z,8.83
2018-05-24T20:18:33.832Z,8.20
2018-05-24T20:21:01.947Z,8.60
2018-05-24T20:23:30.050Z,9.13
2018-05-24T20:25:58.262Z,8.00
2018-05-24T20:28:26.432Z,8.87
2018-05-24T20:30:54.664Z,8.93
2018-05-24T20:33:22.756Z,8.80
2018-05-24T20:35:50.885Z,8.90
2018-05-24T20:38:19.150Z,8.67
2018-05-24T20:40:47.300Z,8.83
2018-05-24T20:43:15.466Z,8.20
2018-05-24T20:45:43.621Z,9.37
2018-05-24T20:48:11.827Z,8.77
2018-05-24T20:50:39.953Z,9.00
2018-05-24T20:53:08.096Z,8.83
2018-05-24T20:55:36.204Z,9.50
2018-05-24T20:58:04.318Z,9.47
2018-05-24T21:00:32.456Z,8.90
2018-05-24T21:03:00.598Z,9.83
2018-05-24T21:05:28.743Z,9.50
2018-05-24T21:07:56.865Z,8.93
2018-05-24T21:10:24.988Z,9.33
2018-05-24T21:12:53.107Z,9.90
2018-05-24T21:15:21.229Z,9.20
2018-05-24T21:17:49.340Z,8.87
2018-05-24T21:20:17.475Z,9.73
2018-05-24T21:22:45.609Z,9.33
2018-05-24T21:25:13.749Z,9.83
2018-05-24T21:27:41.865Z,9.67
2018-05-24T21:30:10.034Z,9.40
2018-05-24T21:32:38.160Z,9.80
2018-05-24T21:35:06.404Z,9.63
2018-05-24T21:37:34.555Z,10.63
2018-05-24T21:40:02.663Z,10.37
2018-05-24T21:42:30.871Z,10.40
2018-05-24T21:44:59.052Z,10.43
2018-05-24T21:47:27.197Z,10.23
2018-05-24T21:49:55.347Z,10.10
2018-05-24T21:52:23.495Z,10.17
2018-05-24T21:54:51.607Z,10.40
2018-05-24T21:57:19.755Z,10.37
2018-05-24T21:59:47.867Z,10.60
2018-05-24T22:02:16.016Z,10.60
2018-05-24T22:04:44.145Z,10.97
2018-05-24T22:07:12.291Z,11.27
2018-05-24T22:09:40.421Z,11.27
2018-05-24T22:12:08.538Z,11.27
2018-05-24T22:14:36.683Z,11.73
2018-05-24T22:17:04.860Z,11.40
2018-05-24T22:19:32.967Z,11.50
2018-05-24T22:22:01.092Z,11.60
2018-05-24T22:24:29.221Z,11.97
2018-05-24T22:26:57.326Z,11.93
2018-05-24T22:29:25.580Z,11.50
2018-05-24T22:31:53.605Z,11.27
2018-05-24T22:34:21.747Z,11.67
2018-05-24T22:36:50.078Z,12.60
2018-05-24T22:39:18.201Z,12.50
2018-05-24T22:41:46.315Z,12.57
2018-05-24T22:44:14.451Z,11.60
2018-05-24T22:46:42.559Z,13.57
2018-05-24T22:49:10.685Z,12.50
2018-05-24T22:51:38.809Z,12.70
2018-05-24T22:54:06.957Z,13.23
2018-05-24T22:56:35.109Z,12.40
2018-05-24T22:59:03.270Z,12.47
2018-05-24T23:01:31.396Z,14.10
2018-05-24T23:03:59.513Z,14.17
2018-05-24T23:06:27.640Z,14.03
2018-05-24T23:08:55.758Z,14.80
2018-05-24T23:11:24.616Z,13.80
2018-05-24T23:13:52.732Z,13.03
2018-05-24T23:16:20.846Z,12.80
2018-05-24T23:18:48.981Z,14.00
2018-05-24T23:21:17.102Z,13.97
2018-05-24T23:23:45.214Z,13.67
2018-05-24T23:26:13.327Z,16.53
2018-05-24T23:28:41.468Z,13.63
2018-05-24T23:31:09.579Z,14.77
2018-05-24T23:33:37.743Z,14.33
2018-05-24T23:36:05.862Z,14.03
2018-05-24T23:38:33.989Z,14.50
2018-05-24T23:41:02.133Z,15.77
2018-05-24T23:43:30.250Z,16.60
2018-05-24T23:45:58.405Z,16.83
2018-05-24T23:48:26.549Z,16.00
2018-05-24T23:50:54.679Z,17.80
2018-05-24T23:53:22.974Z,16.93
2018-05-24T23:55:51.097Z,16.80
2018-05-24T23:58:19.253Z,16.90
